Time;durP1;ratioP1;P1;durP2;ratioP2;P2;SDS_P1;SDS_P2;PMS_P1;PMS_P2;Temp;Humidity;BMP_temperature;BMP_pressure;BME280_temperature;BME280_humidity;BME280_pressure;Samples;Min_cycle;Max_cycle;Signal;HPM_P1;HPM_P2
2023/07/13 00:01:58;;;;;;;13.75;3.10;;;18.50;99.90;;;;;;4936147;29;20765;-83
2023/07/13 00:04:25;;;;;;;19.10;3.15;;;18.50;99.90;;;;;;4920842;29;20226;-84
2023/07/13 00:06:51;;;;;;;10.13;2.85;;;18.50;99.90;;;;;;4920494;29;20179;-84
2023/07/13 00:09:18;;;;;;;16.73;3.42;;;18.40;99.90;;;;;;4905096;29;20187;-82
2023/07/13 00:11:44;;;;;;;15.90;3.30;;;18.40;99.90;;;;;;4937786;29;20187;-83
2023/07/13 00:14:11;;;;;;;14.27;2.88;;;18.40;99.90;;;;;;4939408;29;20187;-86
2023/07/13 00:16:40;;;;;;;13.88;2.80;;;18.40;99.90;;;;;;4938847;29;20190;-81
2023/07/13 00:19:06;;;;;;;11.10;2.65;;;18.40;99.90;;;;;;4937894;29;20620;-83
2023/07/13 00:21:32;;;;;;;13.05;3.33;;;18.40;99.90;;;;;;4938048;29;20366;-83
2023/07/13 00:23:57;;;;;;;13.52;3.00;;;18.30;99.90;;;;;;4937756;29;20670;-82
2023/07/13 00:26:23;;;;;;;12.32;2.85;;;18.30;99.90;;;;;;4936905;29;20231;-83
2023/07/13 00:28:49;;;;;;;11.75;3.00;;;18.30;99.90;;;;;;4936845;28;20227;-85
2023/07/13 00:31:15;;;;;;;10.90;3.33;;;18.30;99.90;;;;;;4921393;29;20202;-84
2023/07/13 00:33:41;;;;;;;13.60;3.13;;;18.30;99.90;;;;;;4937236;29;20263;-83
2023/07/13 00:36:08;;;;;;;12.40;3.05;;;18.30;99.90;;;;;;4921109;29;20187;-83
2023/07/13 00:38:35;;;;;;;14.80;2.85;;;18.30;99.90;;;;;;4921583;29;20195;-83
2023/07/13 00:41:03;;;;;;;15.85;3.47;;;18.20;99.90;;;;;;4920560;29;20222;-84
2023/07/13 00:43:30;;;;;;;16.15;3.13;;;18.20;99.90;;;;;;4938490;29;20219;-84
2023/07/13 00:45:56;;;;;;;14.25;3.33;;;18.20;99.90;;;;;;4937008;29;20205;-84
2023/07/13 00:48:27;;;;;;;10.45;3.53;;;18.20;99.90;;;;;;4937295;28;20195;-84
2023/07/13 00:50:56;;;;;;;11.55;3.50;;;18.20;99.90;;;;;;4937254;29;20254;-83
2023/07/13 00:53:24;;;;;;;12.63;3.50;;;18.20;99.90;;;;;;4921823;29;20187;-84
2023/07/13 00:55:51;;;;;;;16.95;3.65;;;18.20;99.90;;;;;;4937846;29;20194;-84
2023/07/13 00:58:17;;;;;;;11.82;3.08;;;18.20;99.90;;;;;;4923171;29;20206;-83
2023/07/13 01:00:43;;;;;;;10.15;3.13;;;18.10;99.90;;;;;;4925529;29;20636;-84
2023/07/13 01:03:09;;;;;;;16.23;3.17;;;18.10;99.90;;;;;;4928023;29;20422;-83
2023/07/13 01:05:36;;;;;;;16.70;3.22;;;18.10;99.90;;;;;;4912019;29;20250;-83
2023/07/13 01:08:05;;;;;;;14.52;3.50;;;18.10;99.90;;;;;;4944393;28;20207;-84
2023/07/13 01:10:38;;;;;;;15.60;3.33;;;18.10;99.90;;;;;;4929524;29;20199;-84
2023/07/13 01:13:06;;;;;;;12.88;3.03;;;18.10;99.90;;;;;;4930995;29;20191;-85
2023/07/13 01:15:54;;;;;;;12.00;3.58;;;18.10;99.90;;;;;;4930994;29;20246;-84
2023/07/13 01:18:26;;;;;;;16.05;3.38;;;18.00;99.90;;;;;;4929533;29;20175;-83
2023/07/13 01:20:55;;;;;;;12.35;3.00;;;18.00;99.90;;;;;;4928107;29;20195;-83
2023/07/13 01:23:22;;;;;;;13.02;3.28;;;17.90;99.90;;;;;;4924153;29;20284;-83
2023/07/13 01:25:48;;;;;;;15.68;3.78;;;17.90;99.90;;;;;;4921341;29;20238;-83
2023/07/13 01:28:16;;;;;;;12.80;3.60;;;17.90;99.90;;;;;;4939195;29;20180;-84
2023/07/13 01:30:45;;;;;;;16.08;3.40;;;17.90;99.90;;;;;;4938615;29;20188;-84
2023/07/13 01:33:20;;;;;;;14.18;3.58;;;17.80;99.90;;;;;;4938733;29;20194;-85
2023/07/13 01:35:46;;;;;;;17.52;3.30;;;17.90;99.90;;;;;;4921766;29;20183;-85
2023/07/13 01:38:15;;;;;;;13.63;3.50;;;17.80;99.90;;;;;;4921258;29;20191;-85
2023/07/13 01:40:42;;;;;;;15.30;3.72;;;17.80;99.90;;;;;;4921599;29;20531;-84
2023/07/13 01:43:08;;;;;;;13.93;3.47;;;17.80;99.90;;;;;;4905123;29;20305;-84
2023/07/13 01:45:33;;;;;;;16.58;3.33;;;17.80;99.90;;;;;;4922069;29;20512;-84
2023/07/13 01:47:59;;;;;;;11.98;3.20;;;17.80;99.90;;;;;;4937481;29;20623;-83
2023/07/13 01:50:26;;;;;;;12.32;3.13;;;17.80;99.90;;;;;;4921053;29;20266;-83
2023/07/13 01:52:52;;;;;;;14.75;3.30;;;17.80;99.90;;;;;;4924484;29;20229;-84
2023/07/13 01:55:20;;;;;;;13.00;3.40;;;17.80;99.90;;;;;;4926233;29;20188;-83
2023/07/13 01:57:46;;;;;;;16.13;3.72;;;17.80;99.90;;;;;;4927269;29;20183;-84
2023/07/13 02:00:13;;;;;;;11.65;3.20;;;17.80;99.90;;;;;;4942337;29;20183;-83
2023/07/13 02:02:42;;;;;;;12.30;2.95;;;17.80;99.90;;;;;;4928242;29;20238;-82
2023/07/13 02:05:10;;;;;;;12.32;3.28;;;17.80;99.90;;;;;;4897702;29;20203;-82
2023/07/13 02:07:35;;;;;;;11.68;3.17;;;17.80;99.90;;;;;;4929699;29;20187;-83
2023/07/13 02:10:03;;;;;;;12.18;3.28;;;17.80;99.90;;;;;;4927584;29;20254;-85
2023/07/13 02:12:29;;;;;;;12.65;3.40;;;17.80;99.90;;;;;;4940099;29;20200;-83
2023/07/13 02:14:55;;;;;;;17.05;3.50;;;17.80;99.90;;;;;;4939502;29;20645;-84
2023/07/13 02:17:21;;;;;;;9.70;3.08;;;17.80;99.90;;;;;;4937762;29;20194;-84
2023/07/13 02:19:47;;;;;;;13.98;2.95;;;17.80;99.90;;;;;;4920795;29;20183;-84
2023/07/13 02:22:14;;;;;;;14.65;3.55;;;17.80;99.90;;;;;;4920324;29;20405;-84
2023/07/13 02:24:39;;;;;;;12.02;2.90;;;17.80;99.90;;;;;;4936323;29;20318;-83
2023/07/13 02:27:05;;;;;;;9.43;2.60;;;17.80;99.90;;;;;;4889933;29;20179;-85
2023/07/13 02:29:31;;;;;;;10.48;3.10;;;17.70;99.90;;;;;;4921725;29;20282;-84
2023/07/13 02:31:57;;;;;;;8.95;2.85;;;17.70;99.90;;;;;;4921613;29;20583;-84
2023/07/13 02:34:23;;;;;;;11.55;3.10;;;17.70;99.90;;;;;;4906326;29;20210;-83
2023/07/13 02:36:49;;;;;;;8.75;2.60;;;17.70;99.90;;;;;;4922113;29;20546;-83
2023/07/13 02:39:15;;;;;;;13.85;3.00;;;17.70;99.90;;;;;;4938189;29;20307;-83
2023/07/13 02:41:41;;;;;;;9.13;2.67;;;17.70;99.90;;;;;;4922460;29;20219;-83
2023/07/13 02:44:08;;;;;;;11.05;2.97;;;17.70;99.90;;;;;;4922931;29;20287;-84
2023/07/13 02:46:36;;;;;;;14.25;3.55;;;17.70;99.90;;;;;;4907095;29;20203;-83
2023/07/13 02:49:02;;;;;;;13.68;3.58;;;17.70;99.90;;;;;;4922256;29;20183;-84
2023/07/13 02:51:28;;;;;;;17.08;3.72;;;17.70;99.90;;;;;;4922396;29;20240;-83
2023/07/13 02:53:54;;;;;;;14.93;3.65;;;17.70;99.90;;;;;;4922168;29;20271;-83
2023/07/13 02:56:27;;;;;;;15.98;3.60;;;17.70;99.90;;;;;;4937603;28;20179;-84
2023/07/13 02:58:54;;;;;;;18.17;3.78;;;17.60;99.90;;;;;;4921537;29;20551;-83
2023/07/13 03:01:21;;;;;;;11.18;3.47;;;17.60;99.90;;;;;;4938748;29;20175;-83
2023/07/13 03:03:49;;;;;;;14.45;4.00;;;17.60;99.90;;;;;;4936733;29;20174;-84
2023/07/13 03:06:16;;;;;;;15.88;4.38;;;17.60;99.90;;;;;;4936816;29;20214;-84
2023/07/13 03:08:48;;;;;;;15.95;4.07;;;17.50;99.90;;;;;;4922513;29;20265;-83
2023/07/13 03:11:18;;;;;;;19.90;4.68;;;17.50;99.90;;;;;;4936656;29;20262;-84
2023/07/13 03:13:48;;;;;;;16.30;4.20;;;17.50;99.90;;;;;;4937033;29;20191;-83
2023/07/13 03:16:15;;;;;;;19.35;4.13;;;17.50;99.90;;;;;;4936402;28;20255;-86
2023/07/13 03:18:44;;;;;;;13.68;4.15;;;17.50;99.90;;;;;;4936330;29;20604;-84
2023/07/13 03:21:11;;;;;;;19.08;4.50;;;17.50;99.90;;;;;;4936703;29;20201;-84
2023/07/13 03:23:38;;;;;;;19.73;4.88;;;17.50;99.90;;;;;;4937634;28;20209;-84
2023/07/13 03:26:10;;;;;;;13.07;4.22;;;17.50;99.90;;;;;;4936674;29;20314;-84
2023/07/13 03:28:39;;;;;;;15.85;4.38;;;17.40;99.90;;;;;;4922310;29;20206;-84
2023/07/13 03:31:12;;;;;;;12.98;4.20;;;17.50;99.90;;;;;;4920739;29;20194;-84
2023/07/13 03:33:38;;;;;;;25.08;4.35;;;17.40;99.90;;;;;;4920214;29;20226;-83
2023/07/13 03:36:06;;;;;;;14.20;4.40;;;17.40;99.90;;;;;;4920463;29;20234;-83
2023/07/13 03:38:33;;;;;;;18.15;4.53;;;17.40;99.90;;;;;;4935987;29;20198;-83
2023/07/13 03:41:01;;;;;;;21.52;4.38;;;17.30;99.90;;;;;;4921769;29;20191;-83
2023/07/13 03:43:28;;;;;;;14.85;4.25;;;17.30;99.90;;;;;;4905537;29;20223;-84
2023/07/13 03:45:54;;;;;;;20.80;3.70;;;17.30;99.90;;;;;;4921886;29;20192;-84
2023/07/13 03:48:20;;;;;;;12.88;3.53;;;17.30;99.90;;;;;;4906128;29;20211;-84
2023/07/13 03:50:47;;;;;;;18.17;4.25;;;17.30;99.90;;;;;;4922494;29;20187;-84
2023/07/13 03:53:13;;;;;;;20.70;4.07;;;17.30;99.90;;;;;;4922561;29;20195;-83
2023/07/13 03:55:39;;;;;;;16.42;4.03;;;17.30;99.90;;;;;;4923487;29;20282;-83
2023/07/13 03:58:30;;;;;;;17.92;4.10;;;17.30;99.90;;;;;;4906791;29;20274;-84
2023/07/13 04:01:01;;;;;;;14.43;3.45;;;17.30;99.90;;;;;;4922255;29;20235;-84
2023/07/13 04:03:28;;;;;;;14.20;3.35;;;17.30;99.90;;;;;;4920681;29;20313;-84
2023/07/13 04:05:59;;;;;;;16.23;3.97;;;17.30;99.90;;;;;;4920840;29;20268;-83
2023/07/13 04:08:27;;;;;;;13.32;4.20;;;17.30;99.90;;;;;;4906078;29;20286;-84
2023/07/13 04:10:53;;;;;;;17.08;4.50;;;17.30;99.90;;;;;;4936810;29;20277;-84
2023/07/13 04:13:18;;;;;;;15.40;3.63;;;17.30;99.90;;;;;;4936099;29;20199;-84
2023/07/13 04:15:45;;;;;;;17.75;3.97;;;17.30;99.90;;;;;;4888578;29;20207;-83
2023/07/13 04:18:11;;;;;;;15.02;3.90;;;17.30;99.90;;;;;;4919206;29;20183;-84
2023/07/13 04:20:37;;;;;;;14.65;4.05;;;17.30;99.90;;;;;;4918667;29;20186;-84
2023/07/13 04:23:02;;;;;;;16.58;4.32;;;17.30;99.90;;;;;;4934512;29;20219;-83
2023/07/13 04:25:28;;;;;;;14.98;3.75;;;17.30;99.90;;;;;;4918288;29;20576;-83
2023/07/13 04:27:54;;;;;;;14.02;3.90;;;17.30;99.90;;;;;;4935856;29;20191;-84
2023/07/13 04:30:21;;;;;;;18.77;4.28;;;17.30;99.90;;;;;;4918239;29;20190;-83
2023/07/13 04:32:47;;;;;;;22.63;4.25;;;17.30;99.90;;;;;;4902539;29;20278;-84
2023/07/13 04:35:14;;;;;;;25.90;4.35;;;17.20;99.90;;;;;;4918417;29;20604;-84
2023/07/13 04:37:40;;;;;;;18.25;4.63;;;17.30;99.90;;;;;;4918674;29;20238;-83
2023/07/13 04:40:11;;;;;;;15.50;4.18;;;17.30;99.90;;;;;;4934733;29;20573;-84
2023/07/13 04:42:37;;;;;;;24.52;4.80;;;17.30;99.90;;;;;;4919427;29;20636;-84
2023/07/13 04:45:03;;;;;;;17.98;3.85;;;17.30;99.90;;;;;;4937438;29;20203;-86
2023/07/13 04:47:33;;;;;;;21.95;5.00;;;17.30;99.90;;;;;;4919602;29;20179;-84
2023/07/13 04:49:58;;;;;;;17.05;4.47;;;17.30;99.90;;;;;;4920074;29;20187;-83
2023/07/13 04:52:24;;;;;;;17.55;4.30;;;17.30;99.90;;;;;;4919821;29;20183;-83
2023/07/13 04:54:50;;;;;;;16.35;3.97;;;17.30;99.90;;;;;;4920698;29;20207;-86
2023/07/13 04:57:16;;;;;;;23.15;4.57;;;17.30;99.90;;;;;;4920467;29;20179;-83
2023/07/13 04:59:42;;;;;;;19.38;4.28;;;17.40;99.90;;;;;;4904824;29;20210;-82
2023/07/13 05:02:08;;;;;;;15.15;4.00;;;17.40;99.90;;;;;;4921010;29;20281;-84
2023/07/13 05:04:33;;;;;;;20.48;4.78;;;17.30;99.90;;;;;;4937108;29;20179;-83
2023/07/13 05:07:00;;;;;;;17.00;4.13;;;17.40;99.90;;;;;;4937628;29;20183;-83
2023/07/13 05:09:26;;;;;;;18.90;4.40;;;17.40;99.90;;;;;;4922440;29;20226;-84
2023/07/13 05:11:52;;;;;;;21.00;4.93;;;17.50;99.90;;;;;;4906237;29;20195;-83
2023/07/13 05:14:18;;;;;;;17.92;4.55;;;17.50;99.90;;;;;;4921278;29;20187;-83
2023/07/13 05:16:44;;;;;;;22.20;4.30;;;17.50;99.90;;;;;;4936653;29;20708;-83
2023/07/13 05:19:10;;;;;;;13.23;4.43;;;17.50;99.90;;;;;;4921376;29;20274;-85
2023/07/13 05:21:36;;;;;;;20.67;4.63;;;17.60;99.90;;;;;;4920846;29;20183;-84
2023/07/13 05:24:01;;;;;;;18.50;4.45;;;17.60;99.90;;;;;;4920997;29;20239;-84
2023/07/13 05:26:27;;;;;;;16.60;4.40;;;17.60;99.90;;;;;;4921278;29;20231;-83
2023/07/13 05:28:53;;;;;;;15.43;4.82;;;17.70;99.90;;;;;;4909501;29;20632;-83
2023/07/13 05:31:19;;;;;;;20.67;5.05;;;17.70;99.90;;;;;;4924605;29;20290;-83
2023/07/13 05:33:45;;;;;;;16.88;4.28;;;17.70;99.90;;;;;;4924527;29;20187;-83
2023/07/13 05:36:10;;;;;;;16.33;4.45;;;17.80;99.90;;;;;;4941075;29;20631;-83
2023/07/13 05:38:36;;;;;;;13.35;4.15;;;17.80;99.90;;;;;;4940633;29;20187;-84
2023/07/13 05:41:02;;;;;;;14.07;3.75;;;17.80;99.90;;;;;;4923963;29;20251;-84
2023/07/13 05:43:28;;;;;;;14.23;3.95;;;17.80;99.90;;;;;;4909409;29;20274;-83
2023/07/13 05:45:55;;;;;;;13.43;4.53;;;17.80;99.90;;;;;;4927432;29;20616;-84
2023/07/13 05:48:21;;;;;;;19.50;3.97;;;17.90;99.90;;;;;;4928681;29;20607;-81
2023/07/13 05:50:47;;;;;;;15.05;3.65;;;17.90;99.90;;;;;;4943752;29;20186;-83
2023/07/13 05:53:13;;;;;;;15.95;4.47;;;18.00;99.90;;;;;;4941874;29;20187;-83
2023/07/13 05:55:43;;;;;;;12.10;3.65;;;18.00;99.90;;;;;;4942349;29;20207;-85
2023/07/13 05:58:12;;;;;;;19.52;3.85;;;18.10;99.90;;;;;;4941702;29;20179;-84
2023/07/13 06:00:38;;;;;;;15.05;4.00;;;18.10;99.90;;;;;;4910190;29;20194;-87
2023/07/13 06:03:04;;;;;;;16.00;3.97;;;18.10;99.90;;;;;;4926634;29;20525;-83
2023/07/13 06:05:29;;;;;;;11.32;3.63;;;18.20;99.90;;;;;;4943029;29;20191;-85
2023/07/13 06:07:56;;;;;;;11.27;3.67;;;18.20;99.90;;;;;;4924653;29;20180;-87
2023/07/13 06:10:21;;;;;;;16.85;3.85;;;18.30;99.90;;;;;;4923944;29;20482;-81
2023/07/13 06:12:47;;;;;;;14.50;3.72;;;18.30;99.90;;;;;;4939792;29;20199;-80
2023/07/13 06:15:13;;;;;;;15.00;3.53;;;18.30;99.90;;;;;;4925210;29;20179;-82
2023/07/13 06:17:39;;;;;;;10.60;3.47;;;18.20;99.90;;;;;;4940662;29;20184;-84
2023/07/13 06:20:06;;;;;;;12.80;3.35;;;18.20;99.90;;;;;;4925546;29;20206;-84
2023/07/13 06:22:31;;;;;;;10.25;3.42;;;18.10;99.90;;;;;;4924623;29;20235;-80
2023/07/13 06:24:57;;;;;;;10.82;3.10;;;18.10;99.90;;;;;;4923077;29;20188;-82
2023/07/13 06:27:23;;;;;;;11.90;3.47;;;18.20;99.90;;;;;;4924734;29;20219;-83
2023/07/13 06:29:49;;;;;;;15.07;3.40;;;18.30;99.90;;;;;;4923623;29;20195;-84
2023/07/13 06:32:15;;;;;;;11.23;3.03;;;18.30;99.90;;;;;;4908915;29;20268;-83
2023/07/13 06:34:40;;;;;;;11.35;3.10;;;18.40;99.90;;;;;;4907314;29;20282;-83
2023/07/13 06:37:06;;;;;;;13.35;3.25;;;18.50;99.90;;;;;;4906599;29;20585;-83
2023/07/13 06:39:32;;;;;;;10.10;3.03;;;18.60;99.90;;;;;;4935934;28;20670;-83
2023/07/13 06:41:58;;;;;;;10.23;2.72;;;18.70;99.90;;;;;;4937539;29;20302;-84
2023/07/13 06:44:24;;;;;;;10.25;2.80;;;18.70;99.90;;;;;;4922782;29;20235;-84
2023/07/13 06:46:50;;;;;;;10.93;2.85;;;18.80;99.90;;;;;;4938389;29;20671;-84
2023/07/13 06:49:15;;;;;;;15.20;3.22;;;18.90;99.90;;;;;;4907845;29;20527;-83
2023/07/13 06:51:41;;;;;;;10.40;3.30;;;18.90;99.90;;;;;;4940940;29;20183;-88
2023/07/13 06:54:07;;;;;;;14.43;2.88;;;19.00;99.90;;;;;;4925748;29;20257;-85
2023/07/13 06:56:33;;;;;;;11.60;3.08;;;19.10;99.90;;;;;;4940634;29;20294;-83
2023/07/13 06:58:59;;;;;;;8.80;2.60;;;19.10;99.90;;;;;;4923090;29;20303;-83
2023/07/13 07:01:24;;;;;;;8.75;2.65;;;19.20;99.90;;;;;;4924493;29;20187;-83
2023/07/13 07:03:50;;;;;;;8.80;2.72;;;19.20;99.90;;;;;;4907279;29;20205;-83
2023/07/13 07:06:19;;;;;;;12.07;2.90;;;19.30;99.90;;;;;;4922256;29;20234;-83
2023/07/13 07:08:45;;;;;;;9.40;2.75;;;19.40;99.90;;;;;;4921699;29;20183;-83
2023/07/13 07:11:18;;;;;;;10.18;3.15;;;19.40;99.90;;;;;;4938963;29;20227;-82
2023/07/13 07:13:44;;;;;;;8.25;2.55;;;19.60;99.90;;;;;;4923012;29;20218;-82
2023/07/13 07:16:10;;;;;;;9.13;2.50;;;19.60;99.90;;;;;;4940338;29;20191;-81
2023/07/13 07:18:36;;;;;;;7.53;2.55;;;19.70;99.90;;;;;;4920952;29;20182;-84
2023/07/13 07:21:02;;;;;;;12.70;2.85;;;19.80;99.90;;;;;;4936869;29;20571;-83
2023/07/13 07:23:28;;;;;;;6.72;2.25;;;19.80;99.90;;;;;;4935371;29;20215;-83
2023/07/13 07:25:54;;;;;;;9.35;2.88;;;19.90;99.90;;;;;;4919363;29;20362;-83
2023/07/13 07:28:20;;;;;;;10.27;2.50;;;19.90;99.90;;;;;;4904196;29;20632;-83
2023/07/13 07:30:47;;;;;;;8.27;2.58;;;19.90;99.90;;;;;;4935925;29;20262;-83
2023/07/13 07:33:13;;;;;;;7.15;2.38;;;19.90;99.90;;;;;;4919788;29;20643;-83
2023/07/13 07:35:39;;;;;;;9.48;2.42;;;19.90;99.90;;;;;;4937448;29;20637;-83
2023/07/13 07:38:05;;;;;;;8.73;2.30;;;19.90;99.90;;;;;;4936096;29;20189;-82
2023/07/13 07:40:31;;;;;;;4.43;2.05;;;19.90;99.90;;;;;;4937669;29;20294;-83
2023/07/13 07:42:57;;;;;;;8.15;2.15;;;19.90;99.90;;;;;;4904945;29;20298;-83
2023/07/13 07:45:23;;;;;;;5.72;2.40;;;20.00;99.90;;;;;;4920676;29;20222;-83
2023/07/13 07:47:49;;;;;;;6.40;2.40;;;20.00;99.90;;;;;;4936431;29;20242;-82
2023/07/13 07:50:15;;;;;;;6.18;2.47;;;20.10;99.90;;;;;;4936283;29;20206;-82
2023/07/13 07:52:44;;;;;;;7.38;2.38;;;20.20;99.90;;;;;;4903850;29;20202;-84
2023/07/13 07:55:10;;;;;;;8.73;2.75;;;20.20;99.90;;;;;;4904727;29;20180;-83
2023/07/13 07:57:36;;;;;;;12.43;2.63;;;20.30;99.90;;;;;;4908407;29;20349;-84
2023/07/13 08:00:02;;;;;;;12.85;2.50;;;20.30;99.90;;;;;;4926496;29;20247;-84
2023/07/13 08:02:41;;;;;;;23.95;2.80;;;20.30;99.90;;;;;;4937473;29;20214;-84
2023/07/13 08:05:08;;;;;;;8.93;2.50;;;20.30;99.90;;;;;;4937442;29;20183;-83
2023/07/13 08:07:34;;;;;;;7.60;2.28;;;20.30;99.90;;;;;;4936343;28;20183;-83
2023/07/13 08:10:00;;;;;;;10.48;2.22;;;20.20;99.90;;;;;;4936389;29;20187;-84
2023/07/13 08:12:26;;;;;;;8.65;2.40;;;20.20;99.90;;;;;;4936340;29;20638;-83
2023/07/13 08:14:57;;;;;;;6.07;2.10;;;20.10;99.90;;;;;;4920926;29;20187;-83
2023/07/13 08:17:24;;;;;;;5.45;2.00;;;20.10;99.90;;;;;;4936984;29;20286;-84
2023/07/13 08:19:50;;;;;;;3.58;1.65;;;20.10;99.90;;;;;;4940449;29;20175;-83
2023/07/13 08:22:16;;;;;;;6.50;1.80;;;20.00;99.90;;;;;;4939760;29;20284;-83
2023/07/13 08:24:42;;;;;;;3.35;1.92;;;20.00;99.90;;;;;;4923293;29;20191;-83
2023/07/13 08:27:10;;;;;;;2.50;1.63;;;20.10;99.90;;;;;;4938511;29;20243;-83
2023/07/13 08:29:35;;;;;;;5.68;1.92;;;20.10;99.90;;;;;;4939844;29;20183;-83
2023/07/13 08:32:01;;;;;;;9.70;2.00;;;20.10;99.90;;;;;;4939906;29;20250;-83
2023/07/13 08:34:27;;;;;;;8.23;2.20;;;20.10;99.90;;;;;;4921351;29;20183;-83
2023/07/13 08:36:53;;;;;;;10.95;2.20;;;20.20;99.90;;;;;;4906790;29;20271;-83
2023/07/13 08:39:19;;;;;;;4.82;2.42;;;20.20;99.90;;;;;;4921273;29;20183;-83
2023/07/13 08:41:49;;;;;;;9.80;2.70;;;20.20;99.90;;;;;;4937799;29;20211;-83
2023/07/13 08:44:30;;;;;;;9.80;2.40;;;20.30;99.90;;;;;;4935941;29;20183;-83
2023/07/13 08:46:58;;;;;;;8.00;2.70;;;20.30;99.90;;;;;;4920039;29;20688;-83
2023/07/13 08:49:26;;;;;;;7.00;2.53;;;20.40;99.90;;;;;;4919313;29;20187;-84
2023/07/13 08:52:01;;;;;;;12.05;2.40;;;20.40;99.90;;;;;;4934736;29;20187;-84
2023/07/13 08:54:49;;;;;;;7.72;2.47;;;20.40;99.90;;;;;;4935791;29;20171;-84
2023/07/13 08:57:17;;;;;;;5.53;2.15;;;20.50;99.90;;;;;;4935871;29;20175;-84
2023/07/13 08:59:44;;;;;;;6.38;2.03;;;20.70;99.90;;;;;;4935637;29;20179;-85
2023/07/13 09:02:41;;;;;;;10.30;2.22;;;20.80;99.90;;;;;;4936525;29;20211;-84
2023/07/13 09:05:13;;;;;;;5.15;2.40;;;20.90;99.90;;;;;;4922787;29;20190;-83
2023/07/13 09:07:57;;;;;;;10.70;2.53;;;21.10;99.90;;;;;;4922500;29;20262;-83
2023/07/13 09:10:49;;;;;;;12.85;2.78;;;21.10;99.90;;;;;;4922579;29;20182;-83
2023/07/13 09:13:21;;;;;;;7.05;2.50;;;21.20;99.90;;;;;;4939797;29;20182;-84
2023/07/13 09:15:49;;;;;;;5.43;2.25;;;21.20;99.90;;;;;;4939665;29;20271;-84
2023/07/13 09:18:35;;;;;;;9.65;2.17;;;21.20;99.90;;;;;;4939728;29;20254;-84
2023/07/13 09:21:13;;;;;;;5.43;2.00;;;21.30;99.90;;;;;;4939323;29;20200;-83
2023/07/13 09:23:39;;;;;;;7.03;2.50;;;21.30;99.90;;;;;;4940642;29;20278;-84
2023/07/13 09:26:19;;;;;;;6.70;1.92;;;21.30;99.90;;;;;;4922559;29;20297;-84
2023/07/13 09:28:48;;;;;;;6.93;2.70;;;21.30;99.90;;;;;;4922662;29;20681;-84
2023/07/13 09:31:23;;;;;;;5.70;2.20;;;21.40;99.90;;;;;;4922660;29;20191;-84
2023/07/13 09:33:50;;;;;;;4.97;1.80;;;21.60;99.90;;;;;;4938026;28;20186;-84
2023/07/13 09:36:19;;;;;;;5.57;2.30;;;21.60;99.90;;;;;;4937621;29;20659;-84
2023/07/13 09:38:46;;;;;;;8.88;2.30;;;21.80;99.90;;;;;;4936979;29;20650;-84
2023/07/13 09:41:33;;;;;;;6.45;2.45;;;21.90;99.90;;;;;;4921903;29;20195;-83
2023/07/13 09:44:02;;;;;;;7.10;2.15;;;22.00;99.90;;;;;;4937082;29;20495;-85
2023/07/13 09:46:27;;;;;;;9.93;2.40;;;22.10;99.90;;;;;;4936687;29;20198;-84
2023/07/13 09:48:56;;;;;;;6.78;2.58;;;22.20;99.90;;;;;;4921362;29;20195;-85
2023/07/13 09:51:21;;;;;;;7.55;2.28;;;22.30;99.90;;;;;;4937879;29;20179;-84
2023/07/13 09:53:48;;;;;;;7.07;2.30;;;22.30;99.90;;;;;;4905017;29;20706;-83
2023/07/13 09:56:29;;;;;;;7.63;2.25;;;22.30;99.90;;;;;;4936308;29;20183;-83
2023/07/13 09:58:57;;;;;;;7.57;1.88;;;22.30;99.90;;;;;;4938199;29;20266;-84
2023/07/13 10:01:38;;;;;;;7.43;2.35;;;22.40;99.90;;;;;;4936147;29;20218;-84
2023/07/13 10:04:18;;;;;;;6.32;2.00;;;22.40;99.90;;;;;;4936622;29;20262;-84
2023/07/13 10:06:44;;;;;;;3.78;1.40;;;22.30;99.90;;;;;;4921052;29;20266;-82
2023/07/13 10:09:15;;;;;;;2.80;1.50;;;22.30;99.90;;;;;;4920908;29;20179;-83
2023/07/13 10:11:41;;;;;;;4.93;1.60;;;22.20;99.90;;;;;;4936828;29;20203;-83
2023/07/13 10:14:20;;;;;;;4.95;2.10;;;22.10;99.90;;;;;;4937420;29;20663;-84
2023/07/13 10:16:47;;;;;;;3.80;1.77;;;22.00;99.40;;;;;;4938571;29;20229;-84
2023/07/13 10:19:20;;;;;;;2.83;1.50;;;22.00;99.10;;;;;;4921396;29;20253;-83
2023/07/13 10:22:23;;;;;;;4.95;1.58;;;21.90;99.00;;;;;;4921278;29;20175;-82
2023/07/13 10:24:50;;;;;;;6.95;1.65;;;21.90;98.80;;;;;;4937722;29;20543;-82
2023/07/13 10:27:18;;;;;;;7.20;1.95;;;22.00;98.60;;;;;;4921857;29;20265;-83
2023/07/13 10:29:54;;;;;;;6.20;1.42;;;22.10;98.40;;;;;;4940286;29;20281;-84
2023/07/13 10:32:24;;;;;;;5.47;1.40;;;22.20;98.00;;;;;;4938869;28;20273;-83
2023/07/13 10:34:52;;;;;;;5.68;1.20;;;22.30;97.70;;;;;;4938096;29;20278;-83
2023/07/13 10:37:32;;;;;;;6.32;1.40;;;22.40;97.60;;;;;;4922888;29;20201;-83
2023/07/13 10:40:00;;;;;;;4.15;1.40;;;22.50;97.40;;;;;;4923827;29;20175;-83
2023/07/13 10:42:37;;;;;;;5.82;1.40;;;22.60;97.10;;;;;;4910270;29;20243;-83
2023/07/13 10:45:16;;;;;;;5.00;1.20;;;22.70;96.60;;;;;;4928698;29;20182;-84
2023/07/13 10:47:43;;;;;;;3.03;1.48;;;22.80;96.00;;;;;;4943585;29;20203;-83
2023/07/13 10:50:18;;;;;;;5.93;1.50;;;22.80;95.70;;;;;;4943128;29;20272;-84
2023/07/13 10:52:47;;;;;;;3.72;1.40;;;22.80;95.70;;;;;;4942140;28;20186;-83
2023/07/13 10:55:33;;;;;;;5.10;1.25;;;22.80;95.40;;;;;;4940412;29;20191;-84
2023/07/13 10:58:12;;;;;;;4.25;1.40;;;22.80;95.00;;;;;;4922384;29;20620;-84
2023/07/13 11:00:56;;;;;;;4.43;1.20;;;22.80;94.90;;;;;;4921713;29;20171;-82
2023/07/13 11:03:23;;;;;;;4.07;1.08;;;22.90;94.90;;;;;;4920706;29;20310;-83
2023/07/13 11:05:51;;;;;;;2.67;1.20;;;23.00;94.50;;;;;;4936487;29;20270;-83
2023/07/13 11:08:20;;;;;;;2.92;1.30;;;23.10;93.70;;;;;;4920620;29;20238;-82
2023/07/13 11:10:55;;;;;;;2.78;1.23;;;23.20;93.40;;;;;;4921185;29;20333;-83
2023/07/13 11:13:47;;;;;;;3.45;1.33;;;23.30;93.20;;;;;;4920989;29;20187;-84
2023/07/13 11:16:41;;;;;;;4.70;1.50;;;23.50;93.00;;;;;;4938164;29;20191;-84
2023/07/13 11:19:07;;;;;;;3.30;1.30;;;23.70;92.70;;;;;;4922581;29;20171;-83
2023/07/13 11:21:32;;;;;;;4.35;1.25;;;23.80;92.60;;;;;;4924152;29;20206;-83
2023/07/13 11:24:16;;;;;;;7.35;1.30;;;23.80;92.40;;;;;;4937737;29;20198;-85
2023/07/13 11:26:48;;;;;;;2.88;1.13;;;23.90;92.50;;;;;;4938002;29;20226;-84
2023/07/13 11:29:32;;;;;;;2.78;1.20;;;24.00;92.30;;;;;;4937486;29;20175;-84
2023/07/13 11:32:01;;;;;;;5.55;1.35;;;24.10;92.00;;;;;;4937690;29;20270;-84
2023/07/13 11:34:38;;;;;;;6.28;1.50;;;24.20;91.50;;;;;;4938120;28;20183;-84
2023/07/13 11:37:12;;;;;;;4.78;1.40;;;24.30;90.60;;;;;;4905989;29;20255;-84
2023/07/13 11:39:43;;;;;;;3.47;1.30;;;24.30;89.70;;;;;;4938694;29;20226;-85
2023/07/13 11:42:15;;;;;;;10.15;2.08;;;24.30;89.30;;;;;;4937993;29;20266;-83
2023/07/13 11:44:48;;;;;;;7.85;1.70;;;24.40;89.30;;;;;;4936638;29;20175;-85
2023/07/13 11:47:22;;;;;;;6.38;1.25;;;24.50;89.40;;;;;;4936373;29;20187;-84
2023/07/13 11:49:52;;;;;;;6.38;1.33;;;24.50;89.10;;;;;;4938018;29;20213;-82
2023/07/13 11:52:21;;;;;;;4.72;1.40;;;24.40;87.60;;;;;;4921086;29;20179;-83
2023/07/13 11:55:00;;;;;;;3.92;1.33;;;24.40;86.40;;;;;;4937922;29;20191;-83
2023/07/13 11:57:37;;;;;;;3.72;1.50;;;24.30;85.90;;;;;;4921213;29;20179;-83
2023/07/13 12:00:16;;;;;;;3.83;1.35;;;24.30;85.70;;;;;;4920933;29;20197;-83
2023/07/13 12:02:49;;;;;;;4.20;1.55;;;24.30;85.70;;;;;;4936923;29;20211;-83
2023/07/13 12:05:23;;;;;;;4.88;1.45;;;24.30;86.20;;;;;;4936093;29;20168;-83
2023/07/13 12:07:50;;;;;;;4.28;1.40;;;24.30;86.20;;;;;;4936373;28;20622;-83
2023/07/13 12:10:25;;;;;;;5.75;1.60;;;24.30;85.90;;;;;;4936252;29;20181;-82
2023/07/13 12:12:55;;;;;;;6.15;1.55;;;24.30;85.80;;;;;;4937264;29;20230;-83
2023/07/13 12:15:22;;;;;;;4.63;1.50;;;24.30;85.60;;;;;;4937700;29;20614;-83
2023/07/13 12:17:48;;;;;;;6.50;1.60;;;24.30;85.10;;;;;;4937834;29;20203;-83
2023/07/13 12:20:26;;;;;;;6.07;1.42;;;24.30;85.10;;;;;;4938116;29;20188;-83
2023/07/13 12:22:53;;;;;;;5.30;1.60;;;24.40;84.50;;;;;;4938180;29;20274;-84
2023/07/13 12:25:20;;;;;;;2.42;1.27;;;24.50;83.40;;;;;;4920770;29;20663;-84
2023/07/13 12:27:50;;;;;;;4.75;1.60;;;24.50;82.10;;;;;;4921252;29;20203;-84
2023/07/13 12:30:35;;;;;;;5.63;1.30;;;24.60;81.40;;;;;;4905542;29;20254;-84
2023/07/13 12:33:11;;;;;;;13.38;2.13;;;24.60;80.90;;;;;;4936657;29;20175;-84
2023/07/13 12:35:45;;;;;;;6.90;1.50;;;24.60;81.10;;;;;;4937015;29;20246;-84
2023/07/13 12:38:11;;;;;;;4.25;1.50;;;24.60;81.80;;;;;;4936105;29;20548;-84
2023/07/13 12:40:40;;;;;;;3.45;1.33;;;24.50;81.80;;;;;;4936843;29;20731;-84
2023/07/13 12:43:12;;;;;;;11.18;1.60;;;24.40;81.00;;;;;;4919772;29;20206;-84
2023/07/13 12:45:38;;;;;;;5.07;1.40;;;24.30;81.50;;;;;;4920479;29;20242;-84
2023/07/13 12:48:14;;;;;;;4.80;1.70;;;24.20;83.40;;;;;;4920561;29;20247;-85
2023/07/13 12:50:42;;;;;;;8.27;1.35;;;24.00;84.60;;;;;;4937490;29;20179;-84